Time;durP1;ratioP1;P1;durP2;ratioP2;P2;SDS_P1;SDS_P2;PMS_P1;PMS_P2;Temp;Humidity;BMP_temperature;BMP_pressure;BME280_temperature;BME280_humidity;BME280_pressure;Samples;Min_cycle;Max_cycle;Signal;HPM_P1;HPM_P2
2023/12/13 00:00:51;;;;;;;5.43;2.83;;;;;;;;;;4988272;28;20190;-80
2023/12/13 00:03:17;;;;;;;5.33;2.43;;;;;;;;;;4985812;28;20608;-80
2023/12/13 00:05:44;;;;;;;4.27;2.90;;;;;;;;;;4987808;28;20176;-80
2023/12/13 00:08:10;;;;;;;4.03;2.50;;;;;;;;;;4973192;28;20191;-79
2023/12/13 00:10:36;;;;;;;5.97;3.30;;;;;;;;;;4973434;28;20208;-80
2023/12/13 00:13:03;;;;;;;5.03;2.80;;;;;;;;;;4987136;28;20632;-80
2023/12/13 00:15:29;;;;;;;5.53;2.80;;;;;;;;;;4988985;28;20545;-80
2023/12/13 00:17:56;;;;;;;5.27;2.80;;;;;;;;;;4988781;28;20230;-80
2023/12/13 00:20:22;;;;;;;5.03;2.90;;;;;;;;;;4972539;28;20216;-81
2023/12/13 00:22:48;;;;;;;5.43;2.40;;;;;;;;;;4989382;28;20226;-80
2023/12/13 00:25:14;;;;;;;3.90;2.20;;;;;;;;;;4988881;28;20192;-80
2023/12/13 00:27:40;;;;;;;5.13;2.10;;;;;;;;;;4988025;28;20180;-80
2023/12/13 00:30:07;;;;;;;3.70;2.00;;;;;;;;;;4971763;28;20671;-80
2023/12/13 00:32:34;;;;;;;3.03;2.20;;;;;;;;;;4988556;28;20180;-79
2023/12/13 00:35:00;;;;;;;4.73;2.30;;;;;;;;;;4985888;28;20196;-80
2023/12/13 00:37:26;;;;;;;7.23;2.00;;;;;;;;;;4987944;28;20179;-80
2023/12/13 00:39:53;;;;;;;2.93;2.10;;;;;;;;;;4970368;28;20236;-80
2023/12/13 00:42:19;;;;;;;3.00;2.10;;;;;;;;;;4973807;28;20234;-80
2023/12/13 00:44:45;;;;;;;2.13;1.60;;;;;;;;;;4988809;28;20187;-79
2023/12/13 00:47:11;;;;;;;3.47;2.10;;;;;;;;;;4985880;28;20192;-79
2023/12/13 00:49:37;;;;;;;2.70;1.73;;;;;;;;;;4987375;28;20211;-80
2023/12/13 00:52:04;;;;;;;3.13;1.80;;;;;;;;;;4991013;28;20179;-80
2023/12/13 00:54:30;;;;;;;3.53;1.90;;;;;;;;;;4970156;28;20371;-79
2023/12/13 00:56:56;;;;;;;4.93;2.07;;;;;;;;;;4988879;28;20183;-79
2023/12/13 00:59:22;;;;;;;2.83;1.80;;;;;;;;;;4989244;28;20195;-80
2023/12/13 01:01:48;;;;;;;5.87;2.13;;;;;;;;;;4987282;28;20663;-80
2023/12/13 01:04:14;;;;;;;3.00;1.90;;;;;;;;;;4989201;28;20187;-80
2023/12/13 01:06:41;;;;;;;6.50;2.00;;;;;;;;;;4988728;28;20248;-80
2023/12/13 01:09:08;;;;;;;5.07;1.97;;;;;;;;;;4972772;28;20211;-79
2023/12/13 01:11:34;;;;;;;4.77;2.00;;;;;;;;;;4972816;28;20552;-80
2023/12/13 01:14:02;;;;;;;4.17;1.97;;;;;;;;;;4989362;28;20208;-79
2023/12/13 01:16:29;;;;;;;4.63;1.77;;;;;;;;;;4986733;28;20184;-79
2023/12/13 01:18:55;;;;;;;5.63;1.90;;;;;;;;;;4972763;28;20698;-80
2023/12/13 01:21:21;;;;;;;3.03;1.70;;;;;;;;;;4989180;28;20176;-80
2023/12/13 01:23:47;;;;;;;4.60;1.87;;;;;;;;;;4975202;28;20661;-79
2023/12/13 01:26:13;;;;;;;6.17;2.00;;;;;;;;;;4990660;28;20219;-80
2023/12/13 01:28:39;;;;;;;3.73;1.60;;;;;;;;;;4988927;28;20199;-80
2023/12/13 01:31:08;;;;;;;3.73;1.80;;;;;;;;;;4987686;28;20191;-79
2023/12/13 01:33:34;;;;;;;4.37;1.83;;;;;;;;;;4992867;28;20208;-79
2023/12/13 01:36:04;;;;;;;5.03;1.50;;;;;;;;;;4993913;28;20190;-79
2023/12/13 01:38:30;;;;;;;3.97;1.80;;;;;;;;;;4991539;28;20190;-79
2023/12/13 04:19:58;;;;;;;8.90;1.50;;;;;;;;;;4988421;28;20288;-79
2023/12/13 04:22:33;;;;;;;1.50;1.30;;;;;;;;;;4988186;28;20816;-80
2023/12/13 04:24:59;;;;;;;3.77;1.30;;;;;;;;;;4988586;28;20187;-80
2023/12/13 04:27:25;;;;;;;3.30;1.60;;;;;;;;;;4989929;28;20267;-80
2023/12/13 04:29:52;;;;;;;2.90;1.33;;;;;;;;;;4989360;28;20206;-80
2023/12/13 04:32:18;;;;;;;3.27;1.50;;;;;;;;;;4972511;28;20246;-80
2023/12/13 04:34:44;;;;;;;4.57;1.50;;;;;;;;;;4972419;28;20218;-80
2023/12/13 04:37:11;;;;;;;1.70;1.40;;;;;;;;;;4988607;28;20214;-80
2023/12/13 04:39:37;;;;;;;2.10;1.43;;;;;;;;;;4971955;28;20203;-80
2023/12/13 04:42:03;;;;;;;2.07;1.43;;;;;;;;;;4971606;28;20195;-80
2023/12/13 04:44:30;;;;;;;2.57;1.70;;;;;;;;;;4987810;28;20274;-80
2023/12/13 04:46:59;;;;;;;3.60;1.40;;;;;;;;;;4972616;28;20278;-80
2023/12/13 04:49:26;;;;;;;3.57;1.60;;;;;;;;;;4971615;28;20207;-80
2023/12/13 04:51:52;;;;;;;2.53;1.83;;;;;;;;;;4988109;28;20450;-80
2023/12/13 04:54:21;;;;;;;2.70;1.70;;;;;;;;;;4972492;28;20579;-80
2023/12/13 04:56:48;;;;;;;4.60;1.50;;;;;;;;;;4987003;28;20191;-80
2023/12/13 04:59:14;;;;;;;4.07;1.40;;;;;;;;;;4952064;28;20215;-80
2023/12/13 05:01:41;;;;;;;4.70;1.40;;;;;;;;;;4986503;28;20172;-80
2023/12/13 05:04:07;;;;;;;3.07;1.20;;;;;;;;;;4990058;28;20192;-80
2023/12/13 05:06:33;;;;;;;1.67;1.20;;;;;;;;;;4990419;28;20191;-80
2023/12/13 05:08:59;;;;;;;4.67;1.43;;;;;;;;;;4992600;28;20216;-80
2023/12/13 05:11:25;;;;;;;4.70;1.33;;;;;;;;;;4976854;28;20632;-80
2023/12/13 05:13:51;;;;;;;3.80;1.53;;;;;;;;;;4993065;28;20290;-80
2023/12/13 05:16:18;;;;;;;4.67;1.33;;;;;;;;;;4993887;28;20228;-80
2023/12/13 05:18:44;;;;;;;3.67;1.30;;;;;;;;;;4991709;28;20200;-80
2023/12/13 05:21:11;;;;;;;2.77;1.30;;;;;;;;;;4989287;28;20183;-80
2023/12/13 05:23:37;;;;;;;2.97;1.20;;;;;;;;;;4993195;28;20196;-80
2023/12/13 05:26:04;;;;;;;3.00;1.13;;;;;;;;;;4992869;28;20274;-80
2023/12/13 05:28:30;;;;;;;3.47;1.30;;;;;;;;;;4992609;28;20215;-80
2023/12/13 05:30:56;;;;;;;3.70;1.17;;;;;;;;;;4975882;28;20274;-79
2023/12/13 05:33:22;;;;;;;3.57;1.20;;;;;;;;;;4993512;28;20203;-78
2023/12/13 05:35:48;;;;;;;3.40;1.40;;;;;;;;;;4992134;28;20632;-78
2023/12/13 05:38:14;;;;;;;4.67;1.30;;;;;;;;;;4972649;28;20199;-78
2023/12/13 05:40:40;;;;;;;4.60;1.40;;;;;;;;;;4992653;28;20207;-78
2023/12/13 05:43:07;;;;;;;3.63;1.30;;;;;;;;;;4992291;28;20191;-78
2023/12/13 05:45:33;;;;;;;3.60;1.30;;;;;;;;;;4990271;28;20428;-78
2023/12/13 05:47:59;;;;;;;3.53;1.40;;;;;;;;;;4992412;28;20188;-78
2023/12/13 05:50:25;;;;;;;3.27;1.40;;;;;;;;;;4975374;28;20618;-78
2023/12/13 05:52:51;;;;;;;3.63;1.00;;;;;;;;;;4992158;28;20274;-78
2023/12/13 05:55:17;;;;;;;2.97;1.20;;;;;;;;;;4992589;28;20184;-78
2023/12/13 05:57:44;;;;;;;2.67;1.30;;;;;;;;;;4993655;28;20183;-78
2023/12/13 06:00:10;;;;;;;4.23;1.40;;;;;;;;;;4992646;28;20222;-78
2023/12/13 06:02:37;;;;;;;2.97;1.37;;;;;;;;;;4966131;28;20498;-79
2023/12/13 06:05:03;;;;;;;3.53;1.40;;;;;;;;;;4991040;28;20187;-80
2023/12/13 06:07:30;;;;;;;4.53;1.37;;;;;;;;;;4992228;28;20188;-79
2023/12/13 06:09:56;;;;;;;4.97;1.30;;;;;;;;;;4990922;28;20231;-79
2023/12/13 06:12:22;;;;;;;4.27;1.00;;;;;;;;;;4987846;28;20202;-78
2023/12/13 06:14:48;;;;;;;2.80;1.27;;;;;;;;;;4990923;28;20313;-77
2023/12/13 06:17:14;;;;;;;2.47;1.30;;;;;;;;;;4994055;28;20180;-79
2023/12/13 06:19:41;;;;;;;3.10;1.23;;;;;;;;;;4975283;28;20282;-78
2023/12/13 06:22:07;;;;;;;2.80;1.23;;;;;;;;;;4991610;28;20266;-76
2023/12/13 06:24:34;;;;;;;4.15;1.55;;;;;;;;;;4989418;28;20929;-78
2023/12/13 06:27:00;;;;;;;5.93;1.73;;;;;;;;;;4992312;28;20625;-75
2023/12/13 06:29:26;;;;;;;5.53;1.40;;;;;;;;;;4992019;28;20239;-75
2023/12/13 06:31:52;;;;;;;2.37;1.30;;;;;;;;;;4991932;28;20212;-79
2023/12/13 06:34:18;;;;;;;2.63;1.50;;;;;;;;;;4975967;28;20609;-74
2023/12/13 06:36:45;;;;;;;3.90;1.73;;;;;;;;;;4990470;28;20486;-73
2023/12/13 06:39:11;;;;;;;3.60;1.73;;;;;;;;;;4992196;28;20227;-76
2023/12/13 06:41:39;;;;;;;4.63;1.63;;;;;;;;;;4992821;28;20180;-74
2023/12/13 06:44:05;;;;;;;3.33;1.60;;;;;;;;;;4993109;28;20212;-73
2023/12/13 06:46:32;;;;;;;3.40;1.50;;;;;;;;;;4990887;28;20184;-75
2023/12/13 06:48:58;;;;;;;3.20;1.80;;;;;;;;;;4992584;28;20298;-75
2023/12/13 06:51:24;;;;;;;3.97;2.00;;;;;;;;;;4991635;28;20523;-77
2023/12/13 06:53:50;;;;;;;4.80;2.00;;;;;;;;;;4990844;28;20274;-75
2023/12/13 06:56:17;;;;;;;4.43;2.30;;;;;;;;;;4990516;28;20258;-75
2023/12/13 06:58:43;;;;;;;3.60;2.40;;;;;;;;;;4988866;28;20211;-75
2023/12/13 07:01:10;;;;;;;4.73;2.40;;;;;;;;;;4990825;28;20180;-75
2023/12/13 07:03:36;;;;;;;5.87;2.27;;;;;;;;;;4991426;28;20614;-75
2023/12/13 07:06:04;;;;;;;3.20;2.20;;;;;;;;;;4991793;28;20714;-75
2023/12/13 07:08:30;;;;;;;3.63;2.17;;;;;;;;;;4990786;28;20176;-75
2023/12/13 07:10:56;;;;;;;3.33;1.80;;;;;;;;;;4991516;28;20248;-74
2023/12/13 07:13:22;;;;;;;3.93;2.07;;;;;;;;;;4992104;28;20223;-74
2023/12/13 07:15:48;;;;;;;4.50;1.93;;;;;;;;;;4991103;28;20172;-75
2023/12/13 07:18:14;;;;;;;3.93;2.10;;;;;;;;;;4993054;28;20550;-75
2023/12/13 07:20:41;;;;;;;3.47;2.10;;;;;;;;;;4990912;28;20204;-75
2023/12/13 07:23:07;;;;;;;4.97;2.80;;;;;;;;;;4989893;28;20267;-75
2023/12/13 07:25:33;;;;;;;6.23;2.77;;;;;;;;;;4991211;28;20184;-75
2023/12/13 07:28:00;;;;;;;3.63;2.63;;;;;;;;;;4989483;28;20345;-75
2023/12/13 07:30:26;;;;;;;4.13;2.70;;;;;;;;;;4985695;28;20266;-74
2023/12/13 07:32:53;;;;;;;5.60;2.80;;;;;;;;;;4988619;28;20259;-75
2023/12/13 07:35:19;;;;;;;5.27;2.60;;;;;;;;;;4990650;28;20199;-75
2023/12/13 07:37:46;;;;;;;3.53;2.40;;;;;;;;;;4988389;28;20640;-75
2023/12/13 07:40:12;;;;;;;3.77;2.30;;;;;;;;;;4991578;28;20286;-75
2023/12/13 07:42:40;;;;;;;5.17;2.30;;;;;;;;;;4990521;28;20262;-75
2023/12/13 07:45:07;;;;;;;4.20;2.60;;;;;;;;;;4988308;28;20176;-75
2023/12/13 07:47:33;;;;;;;5.00;2.80;;;;;;;;;;4989023;28;20567;-74
2023/12/13 07:49:59;;;;;;;5.47;2.30;;;;;;;;;;4992392;28;20229;-74
2023/12/13 07:52:25;;;;;;;4.87;2.40;;;;;;;;;;4991885;28;20207;-76
2023/12/13 07:54:52;;;;;;;3.97;2.43;;;;;;;;;;4992535;28;20695;-73
2023/12/13 07:57:18;;;;;;;5.50;2.50;;;;;;;;;;4990560;28;20199;-73
2023/12/13 07:59:44;;;;;;;4.97;2.50;;;;;;;;;;4989911;28;20195;-73
2023/12/13 08:02:11;;;;;;;4.73;2.60;;;;;;;;;;4989802;28;20180;-73
2023/12/13 08:04:40;;;;;;;3.90;2.10;;;;;;;;;;4991459;28;20198;-73
2023/12/13 08:07:06;;;;;;;6.17;2.33;;;;;;;;;;4991497;28;20187;-73
2023/12/13 08:09:32;;;;;;;4.40;2.23;;;;;;;;;;4989481;28;20212;-73
2023/12/13 08:11:59;;;;;;;4.10;2.50;;;;;;;;;;4990208;28;20203;-73
2023/12/13 08:14:30;;;;;;;3.27;1.90;;;;;;;;;;4989377;28;20715;-73
2023/12/13 08:16:56;;;;;;;4.57;2.27;;;;;;;;;;4991268;28;20679;-73
2023/12/13 08:19:22;;;;;;;4.97;2.23;;;;;;;;;;4991362;28;20636;-73
2023/12/13 08:21:49;;;;;;;3.43;2.30;;;;;;;;;;4991759;28;20662;-73
2023/12/13 08:24:15;;;;;;;2.97;2.43;;;;;;;;;;4987589;28;20187;-73
2023/12/13 08:26:41;;;;;;;4.23;2.50;;;;;;;;;;4991308;28;20191;-73
2023/12/13 08:29:07;;;;;;;3.07;2.20;;;;;;;;;;4972745;28;20230;-73
2023/12/13 08:31:34;;;;;;;4.53;2.33;;;;;;;;;;4990445;28;20192;-73
2023/12/13 08:34:00;;;;;;;3.53;1.80;;;;;;;;;;4988799;28;20219;-74
2023/12/13 08:36:27;;;;;;;2.73;1.77;;;;;;;;;;4991582;28;20214;-74
2023/12/13 08:38:54;;;;;;;3.30;1.90;;;;;;;;;;4991232;28;20294;-73
2023/12/13 08:41:20;;;;;;;3.97;1.87;;;;;;;;;;4989065;28;20195;-73
2023/12/13 08:43:46;;;;;;;4.03;1.90;;;;;;;;;;4989606;28;20184;-73
2023/12/13 08:46:12;;;;;;;4.70;1.93;;;;;;;;;;4990958;28;20272;-73
2023/12/13 08:48:39;;;;;;;4.33;1.90;;;;;;;;;;4990044;28;20203;-74
2023/12/13 08:51:05;;;;;;;3.07;1.70;;;;;;;;;;4989256;28;20238;-74
2023/12/13 08:53:31;;;;;;;4.80;1.93;;;;;;;;;;4989579;28;20219;-73
2023/12/13 08:55:57;;;;;;;3.23;2.03;;;;;;;;;;4991007;28;20250;-73
2023/12/13 08:58:23;;;;;;;4.40;1.80;;;;;;;;;;4990754;28;20187;-73
2023/12/13 09:00:49;;;;;;;6.00;2.20;;;;;;;;;;4986730;28;20187;-73
2023/12/13 09:03:15;;;;;;;3.27;1.80;;;;;;;;;;4989078;28;20274;-74
2023/12/13 09:05:42;;;;;;;3.70;1.80;;;;;;;;;;4988568;28;20211;-74
2023/12/13 09:08:08;;;;;;;3.03;1.80;;;;;;;;;;4990624;28;20188;-73
2023/12/13 09:10:34;;;;;;;3.70;1.90;;;;;;;;;;4989593;28;20211;-73
2023/12/13 09:13:04;;;;;;;5.17;1.90;;;;;;;;;;4989416;28;20215;-74
2023/12/13 09:15:31;;;;;;;3.90;2.10;;;;;;;;;;4989888;28;20599;-73
2023/12/13 09:17:57;;;;;;;6.27;2.20;;;;;;;;;;4990788;28;20196;-73
2023/12/13 09:20:23;;;;;;;4.60;2.13;;;;;;;;;;4990498;28;20261;-74
2023/12/13 09:22:49;;;;;;;4.47;2.33;;;;;;;;;;4990631;28;20191;-73
2023/12/13 09:25:15;;;;;;;3.77;1.97;;;;;;;;;;4986754;28;20237;-74
2023/12/13 09:27:42;;;;;;;4.00;2.00;;;;;;;;;;4990416;28;20683;-74
2023/12/13 09:30:11;;;;;;;4.23;2.10;;;;;;;;;;4989346;28;20680;-73
2023/12/13 09:32:38;;;;;;;5.03;2.20;;;;;;;;;;4989252;28;20183;-74
2023/12/13 09:35:04;;;;;;;3.93;2.10;;;;;;;;;;4972672;28;20692;-74
2023/12/13 09:37:30;;;;;;;5.13;2.37;;;;;;;;;;4986880;28;20641;-73
2023/12/13 09:39:59;;;;;;;4.33;2.00;;;;;;;;;;4986495;28;20287;-73
2023/12/13 09:42:28;;;;;;;2.47;1.80;;;;;;;;;;4986314;28;20215;-74
2023/12/13 09:44:55;;;;;;;6.17;2.37;;;;;;;;;;4989376;28;20270;-74
2023/12/13 09:47:23;;;;;;;3.73;2.13;;;;;;;;;;4990391;28;20481;-74
2023/12/13 09:49:50;;;;;;;4.40;2.00;;;;;;;;;;4990261;28;20215;-73
2023/12/13 09:52:18;;;;;;;5.70;2.00;;;;;;;;;;4986763;28;20190;-74
2023/12/13 09:54:45;;;;;;;3.60;2.20;;;;;;;;;;4992588;28;20676;-74
2023/12/13 09:57:12;;;;;;;4.73;2.03;;;;;;;;;;4993828;28;20184;-73
2023/12/13 09:59:38;;;;;;;5.73;2.30;;;;;;;;;;4990773;28;20207;-73
2023/12/13 10:02:09;;;;;;;4.90;1.87;;;;;;;;;;4992779;28;20278;-74
2023/12/13 10:04:36;;;;;;;3.83;1.90;;;;;;;;;;4992612;28;20227;-73
2023/12/13 10:07:03;;;;;;;16.83;8.13;;;;;;;;;;4991640;28;20298;-74
2023/12/13 10:09:29;;;;;;;14.17;8.43;;;;;;;;;;4991513;28;20203;-73
2023/12/13 10:11:56;;;;;;;5.90;3.63;;;;;;;;;;4992154;28;20206;-74
2023/12/13 10:14:22;;;;;;;3.47;2.77;;;;;;;;;;4992157;28;20208;-73
2023/12/13 10:16:48;;;;;;;3.30;2.33;;;;;;;;;;4993798;28;20188;-74
2023/12/13 10:19:14;;;;;;;6.23;2.67;;;;;;;;;;4992388;28;20230;-73
2023/12/13 10:21:40;;;;;;;3.93;2.00;;;;;;;;;;4999237;28;20223;-74
2023/12/13 10:24:07;;;;;;;2.53;2.20;;;;;;;;;;4993698;28;20253;-74
2023/12/13 10:26:33;;;;;;;3.17;2.00;;;;;;;;;;4993389;28;20211;-74
2023/12/13 10:29:00;;;;;;;3.57;1.97;;;;;;;;;;4991794;28;20609;-73
2023/12/13 10:31:26;;;;;;;3.90;2.00;;;;;;;;;;4993018;28;20188;-73
2023/12/13 10:33:53;;;;;;;2.93;1.70;;;;;;;;;;4991105;28;20216;-73
2023/12/13 10:36:19;;;;;;;2.90;2.00;;;;;;;;;;4992059;28;20185;-74
2023/12/13 10:38:48;;;;;;;5.13;2.20;;;;;;;;;;4992890;28;20688;-73
2023/12/13 10:41:15;;;;;;;3.20;2.00;;;;;;;;;;4992966;28;20192;-74
2023/12/13 10:43:42;;;;;;;3.60;1.90;;;;;;;;;;4987827;28;20218;-73
2023/12/13 10:46:08;;;;;;;4.00;1.73;;;;;;;;;;4992771;28;20192;-74
2023/12/13 10:48:39;;;;;;;3.90;1.70;;;;;;;;;;4992806;28;20616;-74
2023/12/13 10:51:06;;;;;;;4.77;1.70;;;;;;;;;;4992802;28;20257;-73
2023/12/13 10:53:32;;;;;;;3.40;1.83;;;;;;;;;;4992937;28;20207;-74
2023/12/13 10:56:02;;;;;;;2.70;1.80;;;;;;;;;;4991493;28;20211;-74
2023/12/13 10:58:29;;;;;;;4.83;3.10;;;;;;;;;;4992997;28;20214;-74
2023/12/13 11:00:55;;;;;;;3.00;1.90;;;;;;;;;;4990707;28;20314;-74
2023/12/13 11:03:26;;;;;;;4.80;2.40;;;;;;;;;;4974904;28;20181;-73
2023/12/13 11:05:53;;;;;;;5.03;2.60;;;;;;;;;;4992515;28;20200;-74
2023/12/13 11:08:20;;;;;;;3.57;2.27;;;;;;;;;;4991179;28;20187;-74
2023/12/13 11:11:03;;;;;;;3.27;1.80;;;;;;;;;;4992435;28;20545;-74
2023/12/13 11:13:30;;;;;;;5.33;1.93;;;;;;;;;;5007362;28;20239;-74
2023/12/13 11:15:57;;;;;;;6.23;4.37;;;;;;;;;;4989925;28;20180;-74
2023/12/13 11:18:24;;;;;;;4.03;3.13;;;;;;;;;;4991695;28;20176;-74
2023/12/13 11:20:56;;;;;;;5.43;2.80;;;;;;;;;;4992138;28;20180;-74
2023/12/13 11:23:26;;;;;;;3.23;2.23;;;;;;;;;;4990015;28;20189;-74
2023/12/13 11:25:52;;;;;;;4.67;1.90;;;;;;;;;;4991450;28;20633;-74
2023/12/13 11:28:21;;;;;;;3.57;1.90;;;;;;;;;;4990691;28;20230;-74
2023/12/13 11:30:48;;;;;;;4.97;1.90;;;;;;;;;;4991239;28;20176;-74
2023/12/13 11:33:15;;;;;;;1.93;1.30;;;;;;;;;;4989795;28;20176;-74
2023/12/13 11:35:41;;;;;;;2.83;1.50;;;;;;;;;;4985566;28;20184;-74
2023/12/13 11:38:07;;;;;;;3.17;1.23;;;;;;;;;;4989897;28;20180;-74
2023/12/13 11:40:36;;;;;;;1.90;1.03;;;;;;;;;;4990810;28;20199;-74
2023/12/13 11:43:02;;;;;;;1.70;0.97;;;;;;;;;;4991973;28;20228;-74
2023/12/13 11:45:28;;;;;;;1.57;0.67;;;;;;;;;;4991081;28;20211;-74
2023/12/13 11:47:54;;;;;;;1.63;0.80;;;;;;;;;;4974583;28;20180;-74
2023/12/13 11:50:21;;;;;;;4.00;1.50;;;;;;;;;;4989521;28;20208;-74
2023/12/13 11:52:47;;;;;;;2.20;1.20;;;;;;;;;;4991027;28;20227;-74
2023/12/13 11:55:13;;;;;;;4.10;1.73;;;;;;;;;;4990312;28;20211;-73
2023/12/13 11:57:39;;;;;;;2.20;1.50;;;;;;;;;;4991760;28;20554;-73
2023/12/13 12:00:06;;;;;;;1.90;1.33;;;;;;;;;;4990555;28;20277;-74
2023/12/13 12:02:39;;;;;;;1.83;1.07;;;;;;;;;;4991658;28;20250;-74
2023/12/13 12:05:06;;;;;;;3.77;1.00;;;;;;;;;;4991823;28;20195;-74
2023/12/13 12:07:33;;;;;;;1.90;0.80;;;;;;;;;;4991566;28;20196;-74
2023/12/13 12:09:59;;;;;;;1.83;1.10;;;;;;;;;;4990569;28;21103;-74
2023/12/13 12:12:26;;;;;;;1.83;1.30;;;;;;;;;;4990416;28;20212;-74
2023/12/13 12:14:52;;;;;;;4.70;2.47;;;;;;;;;;4990948;28;20608;-73
2023/12/13 12:17:23;;;;;;;4.37;2.37;;;;;;;;;;4991032;28;20531;-74
2023/12/13 12:19:50;;;;;;;4.07;1.80;;;;;;;;;;4990706;28;20231;-73
2023/12/13 12:22:17;;;;;;;1.87;1.30;;;;;;;;;;4988601;28;20176;-74
2023/12/13 12:24:47;;;;;;;3.33;1.70;;;;;;;;;;4985734;28;20209;-74
2023/12/13 12:27:13;;;;;;;2.87;1.50;;;;;;;;;;4989268;28;20215;-74
2023/12/13 12:29:40;;;;;;;3.37;1.90;;;;;;;;;;4990016;28;20231;-74
2023/12/13 12:32:09;;;;;;;4.63;2.53;;;;;;;;;;4989506;28;20191;-74
2023/12/13 12:34:40;;;;;;;3.63;2.40;;;;;;;;;;4991186;28;20251;-74
2023/12/13 12:37:06;;;;;;;4.10;2.17;;;;;;;;;;4990403;28;20681;-74
2023/12/13 12:39:32;;;;;;;3.27;2.00;;;;;;;;;;4990774;28;20204;-74
2023/12/13 12:41:59;;;;;;;6.63;2.50;;;;;;;;;;4991172;28;20275;-74
2023/12/13 12:44:25;;;;;;;4.63;2.50;;;;;;;;;;4991080;28;20639;-74
2023/12/13 12:46:51;;;;;;;4.63;1.80;;;;;;;;;;4990328;28;20694;-74
2023/12/13 12:49:18;;;;;;;3.37;1.70;;;;;;;;;;4990635;28;20634;-74
2023/12/13 12:51:44;;;;;;;5.20;1.90;;;;;;;;;;4989943;28;20184;-74
2023/12/13 12:54:10;;;;;;;4.43;2.20;;;;;;;;;;4989720;28;20222;-74
2023/12/13 12:56:36;;;;;;;4.70;2.57;;;;;;;;;;4989009;28;20180;-74
2023/12/13 12:59:11;;;;;;;4.90;2.27;;;;;;;;;;4990750;28;20620;-74
2023/12/13 13:01:37;;;;;;;6.97;3.80;;;;;;;;;;4990063;28;20172;-74
2023/12/13 13:04:03;;;;;;;4.47;2.40;;;;;;;;;;4989501;28;20184;-74
2023/12/13 13:06:31;;;;;;;5.37;2.20;;;;;;;;;;4973002;28;20340;-74
2023/12/13 13:09:00;;;;;;;5.53;2.60;;;;;;;;;;4990591;28;20711;-74
2023/12/13 13:11:26;;;;;;;5.10;2.90;;;;;;;;;;4990045;28;20660;-74
2023/12/13 13:13:52;;;;;;;3.13;2.37;;;;;;;;;;4988236;28;20211;-73
2023/12/13 13:16:21;;;;;;;13.80;6.30;;;;;;;;;;4989344;28;20188;-73
2023/12/13 13:18:47;;;;;;;8.27;4.87;;;;;;;;;;4987194;28;20199;-74
2023/12/13 13:21:13;;;;;;;5.17;2.80;;;;;;;;;;4992472;28;20184;-74
2023/12/13 13:23:39;;;;;;;5.97;3.00;;;;;;;;;;4990776;28;20183;-74
2023/12/13 13:26:06;;;;;;;5.27;2.57;;;;;;;;;;4989833;28;20487;-74
2023/12/13 13:28:33;;;;;;;7.07;3.57;;;;;;;;;;4992282;28;20269;-74
2023/12/13 13:30:59;;;;;;;9.03;4.30;;;;;;;;;;4992681;28;20199;-73
2023/12/13 13:33:25;;;;;;;10.50;4.97;;;;;;;;;;4990984;28;20184;-74
2023/12/13 13:35:51;;;;;;;10.20;5.23;;;;;;;;;;4992561;28;20184;-74
2023/12/13 13:38:17;;;;;;;10.67;4.50;;;;;;;;;;4994114;28;20812;-74
2023/12/13 13:40:43;;;;;;;8.27;4.10;;;;;;;;;;4991636;28;20212;-74
2023/12/13 13:43:10;;;;;;;5.50;3.30;;;;;;;;;;4994183;28;20735;-74
2023/12/13 13:45:36;;;;;;;6.23;3.17;;;;;;;;;;4997067;28;20194;-73
2023/12/13 13:48:02;;;;;;;4.93;2.93;;;;;;;;;;4993192;28;20192;-74
2023/12/13 13:50:28;;;;;;;5.77;3.50;;;;;;;;;;4992691;28;20278;-73
2023/12/13 13:52:54;;;;;;;5.03;3.53;;;;;;;;;;4994060;28;20275;-73
2023/12/13 13:55:20;;;;;;;5.27;4.10;;;;;;;;;;4992921;28;20218;-74
2023/12/13 13:57:46;;;;;;;6.90;3.73;;;;;;;;;;4990750;28;20179;-73
2023/12/13 14:00:13;;;;;;;4.60;3.80;;;;;;;;;;4992478;28;20223;-74
2023/12/13 14:02:43;;;;;;;7.50;3.73;;;;;;;;;;4992440;28;20200;-74
2023/12/13 14:05:09;;;;;;;4.10;3.37;;;;;;;;;;4995562;28;20188;-73
2023/12/13 14:07:35;;;;;;;6.17;3.27;;;;;;;;;;4991258;28;20702;-75
2023/12/13 14:10:03;;;;;;;5.87;3.10;;;;;;;;;;4995023;28;20255;-74
2023/12/13 14:12:30;;;;;;;6.13;3.90;;;;;;;;;;4974466;28;20212;-74
2023/12/13 14:14:56;;;;;;;7.43;4.20;;;;;;;;;;4991033;28;20208;-74
2023/12/13 14:17:24;;;;;;;8.27;4.10;;;;;;;;;;4992682;28;20198;-74
2023/12/13 14:19:50;;;;;;;9.43;5.23;;;;;;;;;;4992924;28;20204;-73
2023/12/13 14:22:16;;;;;;;8.87;5.03;;;;;;;;;;4993429;28;20238;-74
2023/12/13 14:24:42;;;;;;;8.07;5.20;;;;;;;;;;4993475;28;20821;-74
2023/12/13 14:27:08;;;;;;;7.37;4.83;;;;;;;;;;4992297;28;20187;-73
2023/12/13 14:29:35;;;;;;;7.87;4.83;;;;;;;;;;4993454;28;20765;-74
2023/12/13 14:32:01;;;;;;;7.87;4.67;;;;;;;;;;4992275;28;20195;-73
2023/12/13 14:34:27;;;;;;;5.37;4.10;;;;;;;;;;4974292;28;20691;-73
2023/12/13 14:36:53;;;;;;;9.63;5.10;;;;;;;;;;4992101;28;20179;-74
2023/12/13 14:39:22;;;;;;;7.10;3.93;;;;;;;;;;4990510;28;20229;-74
2023/12/13 14:41:48;;;;;;;4.63;2.80;;;;;;;;;;4992343;28;20198;-73
2023/12/13 14:44:14;;;;;;;5.70;3.00;;;;;;;;;;4990083;28;20195;-74
2023/12/13 14:46:41;;;;;;;5.13;3.00;;;;;;;;;;4991941;28;20199;-75
2023/12/13 14:49:08;;;;;;;13.57;6.67;;;;;;;;;;4989678;28;20208;-74
2023/12/13 14:51:36;;;;;;;8.03;4.93;;;;;;;;;;4991348;28;20602;-74
2023/12/13 14:54:02;;;;;;;7.37;3.60;;;;;;;;;;4992271;28;20216;-76
2023/12/13 14:56:31;;;;;;;6.97;3.00;;;;;;;;;;4991879;28;20271;-76
2023/12/13 14:58:58;;;;;;;4.70;2.50;;;;;;;;;;4991584;28;20215;-82
2023/12/13 15:01:24;;;;;;;4.03;2.33;;;;;;;;;;4976270;28;20176;-76
2023/12/13 15:03:51;;;;;;;3.97;2.33;;;;;;;;;;4988145;28;20234;-76
2023/12/13 15:06:17;;;;;;;3.33;2.30;;;;;;;;;;4990831;28;20627;-76
2023/12/13 15:08:44;;;;;;;4.50;2.40;;;;;;;;;;4990171;28;20200;-75
2023/12/13 15:11:10;;;;;;;4.57;2.43;;;;;;;;;;4990602;28;20270;-76
2023/12/13 15:13:37;;;;;;;4.30;2.20;;;;;;;;;;4990830;28;20247;-75
2023/12/13 15:16:04;;;;;;;4.20;2.17;;;;;;;;;;4990680;28;20334;-76
2023/12/13 15:18:32;;;;;;;4.97;2.00;;;;;;;;;;4989094;28;20211;-76
2023/12/13 15:20:58;;;;;;;3.67;2.10;;;;;;;;;;4990164;28;20180;-76
2023/12/13 15:23:25;;;;;;;4.73;2.00;;;;;;;;;;4988928;28;20230;-76
2023/12/13 15:25:52;;;;;;;3.07;1.80;;;;;;;;;;4990212;28;20184;-76
2023/12/13 15:28:19;;;;;;;4.70;2.03;;;;;;;;;;4974579;28;20636;-76
2023/12/13 15:30:46;;;;;;;3.87;1.90;;;;;;;;;;4989197;28;20184;-76
2023/12/13 15:33:12;;;;;;;5.87;3.20;;;;;;;;;;4990867;28;20226;-76
2023/12/13 15:35:38;;;;;;;3.53;2.30;;;;;;;;;;4989763;28;20265;-76
2023/12/13 15:38:04;;;;;;;7.83;3.77;;;;;;;;;;4989803;28;20180;-76
2023/12/13 15:40:30;;;;;;;5.90;3.60;;;;;;;;;;4990836;28;20200;-76
2023/12/13 15:42:56;;;;;;;6.27;2.57;;;;;;;;;;4989914;28;20238;-76
2023/12/13 15:45:22;;;;;;;4.93;2.93;;;;;;;;;;4989515;28;20215;-76
2023/12/13 15:47:48;;;;;;;4.63;2.13;;;;;;;;;;4991119;28;20670;-76
2023/12/13 15:50:14;;;;;;;2.93;1.80;;;;;;;;;;4990001;28;20219;-76
2023/12/13 15:52:42;;;;;;;5.90;2.70;;;;;;;;;;4987960;28;20241;-76
2023/12/13 15:55:09;;;;;;;6.70;3.13;;;;;;;;;;4992848;28;20309;-76
2023/12/13 15:57:35;;;;;;;6.53;2.90;;;;;;;;;;4973344;28;20286;-76
2023/12/13 16:00:01;;;;;;;5.00;2.80;;;;;;;;;;4990579;28;20203;-76
2023/12/13 16:02:38;;;;;;;3.77;2.80;;;;;;;;;;4988584;28;20262;-76
2023/12/13 16:05:05;;;;;;;4.73;3.23;;;;;;;;;;4991777;28;20187;-76
2023/12/13 16:07:31;;;;;;;4.60;2.93;;;;;;;;;;4989961;28;20713;-76
2023/12/13 16:09:57;;;;;;;4.40;2.53;;;;;;;;;;4989978;28;20231;-76
2023/12/13 16:12:24;;;;;;;7.87;3.50;;;;;;;;;;4991225;28;20200;-76
2023/12/13 16:14:50;;;;;;;5.87;3.30;;;;;;;;;;4989763;28;20667;-75
2023/12/13 16:17:16;;;;;;;5.80;2.90;;;;;;;;;;4989399;28;20203;-76
2023/12/13 16:19:42;;;;;;;5.80;3.17;;;;;;;;;;4988517;28;20208;-76
2023/12/13 16:22:08;;;;;;;6.60;3.13;;;;;;;;;;4990018;28;20334;-79
2023/12/13 16:24:34;;;;;;;6.90;2.77;;;;;;;;;;4990021;28;20216;-80
2023/12/13 16:27:02;;;;;;;5.50;2.50;;;;;;;;;;4988001;28;20186;-79
2023/12/13 16:29:28;;;;;;;5.40;2.40;;;;;;;;;;4989171;28;20207;-79
2023/12/13 16:31:54;;;;;;;5.50;2.73;;;;;;;;;;4990060;28;20192;-79
2023/12/13 16:34:20;;;;;;;7.30;3.20;;;;;;;;;;4973777;28;20211;-79
2023/12/13 16:36:46;;;;;;;4.63;2.90;;;;;;;;;;4992348;28;20184;-80
2023/12/13 16:39:12;;;;;;;4.67;2.73;;;;;;;;;;4989124;28;20208;-79
2023/12/13 16:41:39;;;;;;;4.30;2.80;;;;;;;;;;4979874;28;20183;-79
2023/12/13 16:44:05;;;;;;;4.80;3.23;;;;;;;;;;4989760;28;20219;-79
2023/12/13 16:46:31;;;;;;;5.23;2.50;;;;;;;;;;4974347;28;20192;-79
2023/12/13 16:48:57;;;;;;;3.67;2.47;;;;;;;;;;4973578;28;20628;-80
2023/12/13 16:51:24;;;;;;;5.23;3.03;;;;;;;;;;4989059;28;20257;-80
2023/12/13 16:53:50;;;;;;;32.23;20.43;;;;;;;;;;4986756;28;20223;-79
2023/12/13 16:56:16;;;;;;;25.73;17.33;;;;;;;;;;4989542;28;20186;-80
2023/12/13 16:58:42;;;;;;;30.17;20.63;;;;;;;;;;4973887;28;20205;-79
2023/12/13 17:01:09;;;;;;;18.17;13.63;;;;;;;;;;4989752;28;20180;-79
2023/12/13 17:03:39;;;;;;;24.40;17.63;;;;;;;;;;4993517;28;20552;-79
2023/12/13 17:06:07;;;;;;;21.07;16.00;;;;;;;;;;4993172;28;20198;-80
2023/12/13 17:08:33;;;;;;;12.07;9.55;;;;;;;;;;4981220;28;20519;-84
2023/12/13 17:10:59;;;;;;;36.13;26.23;;;;;;;;;;4976559;28;20191;-80
2023/12/13 17:13:25;;;;;;;13.23;8.63;;;;;;;;;;4991619;28;20282;-80
2023/12/13 17:15:51;;;;;;;22.50;15.93;;;;;;;;;;4978212;28;20190;-80
2023/12/13 17:18:17;;;;;;;17.70;11.47;;;;;;;;;;4993115;28;20207;-80